createdAt,value
2019-04-28T00:05:02.232Z,4.00
2019-04-28T00:07:32.225Z,6.10
2019-04-28T00:10:01.167Z,3.67
2019-04-28T00:12:31.118Z,5.67
2019-04-28T00:14:59.707Z,3.73
2019-04-28T00:17:28.681Z,4.20
2019-04-28T00:20:01.355Z,4.47
2019-04-28T00:22:34.221Z,4.50
2019-04-28T00:25:04.477Z,5.73
2019-04-28T00:27:33.104Z,4.87
2019-04-28T00:30:02.178Z,7.23
2019-04-28T00:32:32.545Z,4.27
2019-04-28T00:35:02.320Z,4.50
2019-04-28T00:37:32.214Z,4.23
2019-04-28T00:40:01.082Z,7.10
2019-04-28T00:42:31.460Z,5.30
2019-04-28T00:45:01.651Z,6.40
2019-04-28T00:47:31.147Z,5.40
2019-04-28T00:50:02.117Z,8.03
2019-04-28T00:52:31.973Z,7.07
2019-04-28T00:55:01.157Z,7.33
2019-04-28T00:57:30.950Z,6.13
2019-04-28T01:00:02.040Z,4.37
2019-04-28T01:02:31.875Z,5.00
2019-04-28T01:05:01.482Z,7.40
2019-04-28T01:07:31.294Z,6.80
2019-04-28T01:10:01.385Z,5.70
2019-04-28T01:12:31.126Z,6.37
2019-04-28T01:15:02.626Z,6.80
2019-04-28T01:17:39.659Z,5.87
2019-04-28T01:20:10.079Z,7.10
2019-04-28T01:22:40.134Z,7.67
2019-04-28T01:25:10.521Z,8.50
2019-04-28T01:27:40.982Z,7.00
2019-04-28T01:30:11.509Z,10.30
2019-04-28T01:32:49.743Z,8.83
2019-04-28T01:35:20.825Z,9.27
2019-04-28T01:37:50.509Z,10.20
2019-04-28T01:40:20.497Z,10.00
2019-04-28T01:42:49.947Z,9.73
2019-04-28T01:45:20.441Z,10.03
2019-04-28T01:47:50.376Z,9.77
2019-04-28T01:50:20.430Z,9.10
2019-04-28T01:52:49.665Z,10.40
2019-04-28T01:55:20.075Z,10.73
2019-04-28T01:57:49.820Z,11.30
2019-04-28T02:00:25.027Z,9.40
2019-04-28T02:02:50.561Z,11.83
2019-04-28T02:05:19.788Z,9.60
2019-04-28T02:07:50.551Z,11.73
2019-04-28T02:10:21.523Z,12.30
2019-04-28T02:12:50.314Z,11.17
2019-04-28T02:15:20.197Z,9.07
2019-04-28T02:17:51.362Z,11.40
2019-04-28T02:20:20.580Z,6.33
2019-04-28T02:22:53.282Z,8.00
2019-04-28T02:25:21.832Z,8.70
2019-04-28T02:27:50.409Z,8.27
2019-04-28T02:30:20.910Z,7.83
2019-04-28T02:32:51.845Z,7.10
2019-04-28T02:35:21.383Z,9.77
2019-04-28T02:37:50.663Z,9.73
2019-04-28T02:40:20.643Z,9.67
2019-04-28T02:42:51.967Z,8.40
2019-04-28T02:45:21.766Z,7.70
2019-04-28T02:47:52.471Z,9.10
2019-04-28T02:50:33.081Z,12.50
2019-04-28T02:53:03.529Z,8.77
2019-04-28T02:55:32.973Z,11.40
2019-04-28T02:58:01.811Z,9.57
2019-04-28T03:00:31.668Z,11.77
2019-04-28T03:03:01.575Z,12.23
2019-04-28T03:05:33.132Z,9.53
2019-04-28T03:08:01.241Z,12.37
2019-04-28T03:10:31.040Z,16.63
2019-04-28T03:13:01.200Z,11.23
2019-04-28T03:15:30.378Z,11.73
2019-04-28T03:18:01.822Z,11.43
2019-04-28T03:20:30.590Z,15.60
2019-04-28T03:23:00.999Z,13.50
2019-04-28T03:25:33.397Z,12.07
2019-04-28T03:28:12.212Z,11.77
2019-04-28T03:30:45.751Z,17.00
2019-04-28T03:33:18.883Z,13.20
2019-04-28T03:35:46.653Z,12.13
2019-04-28T03:38:15.702Z,13.70
2019-04-28T03:40:44.398Z,14.50
2019-04-28T03:43:14.356Z,11.03
2019-04-28T03:45:53.931Z,12.53
2019-04-28T03:48:22.533Z,15.00
2019-04-28T03:50:51.509Z,16.63
2019-04-28T03:53:20.770Z,18.20
2019-04-28T03:55:51.295Z,14.97
2019-04-28T03:58:23.661Z,13.43
2019-04-28T04:00:50.753Z,14.90
2019-04-28T04:03:21.135Z,15.57
2019-04-28T04:05:50.897Z,19.80
2019-04-28T04:08:20.920Z,15.37
2019-04-28T04:10:51.337Z,17.80
2019-04-28T04:13:33.311Z,17.27
2019-04-28T04:16:21.680Z,17.13
2019-04-28T04:18:54.798Z,18.73
2019-04-28T04:21:23.527Z,23.10
2019-04-28T04:23:52.137Z,23.17
2019-04-28T04:26:21.500Z,18.63
2019-04-28T04:28:51.435Z,20.73
2019-04-28T04:31:20.347Z,18.43
2019-04-28T04:33:50.534Z,21.97
2019-04-28T04:36:21.153Z,21.43
2019-04-28T04:38:51.208Z,19.23
2019-04-28T04:41:20.262Z,20.23
2019-04-28T04:43:51.344Z,26.03
2019-04-28T04:46:22.077Z,20.90
2019-04-28T04:48:51.417Z,18.90
2019-04-28T04:51:21.233Z,22.23
2019-04-28T04:53:51.332Z,20.93
2019-04-28T04:56:21.286Z,19.20
2019-04-28T04:58:50.686Z,20.13
2019-04-28T05:01:40.671Z,22.73
2019-04-28T05:04:20.153Z,20.13
2019-04-28T05:06:49.702Z,19.97
2019-04-28T05:09:19.648Z,22.70
2019-04-28T05:11:49.934Z,25.03
2019-04-28T05:14:19.820Z,20.30
2019-04-28T05:16:49.752Z,20.20
2019-04-28T05:19:19.862Z,18.50
2019-04-28T05:21:49.856Z,17.37
2019-04-28T05:24:26.016Z,14.20
2019-04-28T05:26:56.146Z,16.00
2019-04-28T05:29:26.879Z,17.40
2019-04-28T05:31:59.833Z,21.30
2019-04-28T05:34:31.162Z,20.50
2019-04-28T05:37:00.724Z,23.20
2019-04-28T05:39:29.880Z,14.73
2019-04-28T05:41:58.450Z,17.40
2019-04-28T05:44:27.016Z,18.73
2019-04-28T05:46:59.568Z,21.17
2019-04-28T05:49:45.084Z,21.70
2019-04-28T05:52:31.836Z,17.13
2019-04-28T05:55:14.065Z,22.30
2019-04-28T05:57:53.001Z,16.30
2019-04-28T06:00:41.831Z,20.93
2019-04-28T06:03:14.679Z,16.07
2019-04-28T06:05:43.245Z,15.53
2019-04-28T06:08:30.321Z,18.23
2019-04-28T06:10:59.935Z,20.27
2019-04-28T06:13:30.293Z,18.03
2019-04-28T06:15:59.902Z,19.60
2019-04-28T06:18:28.659Z,19.63
2019-04-28T06:20:58.821Z,13.53
2019-04-28T06:23:27.649Z,18.13
2019-04-28T06:25:57.906Z,16.40
2019-04-28T06:28:26.771Z,13.23
2019-04-28T06:30:55.331Z,14.93
2019-04-28T06:33:24.087Z,16.17
2019-04-28T06:35:52.862Z,13.17
2019-04-28T06:38:21.473Z,18.70
2019-04-28T06:40:50.420Z,12.27
2019-04-28T06:43:19.030Z,19.47
2019-04-28T06:45:47.609Z,16.37
2019-04-28T06:48:16.321Z,14.60
2019-04-28T06:50:44.980Z,20.60
2019-04-28T06:53:13.855Z,19.07
2019-04-28T06:55:42.593Z,21.60
2019-04-28T06:58:11.242Z,23.00
2019-04-28T07:00:39.880Z,20.70
2019-04-28T07:03:17.016Z,17.40
2019-04-28T07:05:39.033Z,14.87
2019-04-28T07:08:08.671Z,13.63
2019-04-28T07:10:37.335Z,16.93
2019-04-28T07:13:06.061Z,16.20
2019-04-28T07:15:34.686Z,14.47
2019-04-28T07:18:03.305Z,16.93
2019-04-28T07:20:33.566Z,17.00
2019-04-28T07:23:02.115Z,14.53
2019-04-28T07:25:30.992Z,18.00
2019-04-28T07:28:00.033Z,16.70
2019-04-28T07:30:28.920Z,15.30
2019-04-28T07:33:00.387Z,14.60
2019-04-28T07:35:28.983Z,16.83
2019-04-28T07:37:57.697Z,16.80
2019-04-28T07:40:26.550Z,15.63
2019-04-28T07:42:57.312Z,14.00
2019-04-28T07:45:26.417Z,16.73
2019-04-28T07:47:56.188Z,20.60
2019-04-28T07:50:24.755Z,16.00
2019-04-28T07:53:06.420Z,12.30
2019-04-28T07:55:35.016Z,19.73
2019-04-28T07:58:03.624Z,28.77
2019-04-28T08:00:32.459Z,15.33
2019-04-28T08:03:02.133Z,13.77
2019-04-28T08:05:30.748Z,18.00
2019-04-28T08:07:59.368Z,11.63
2019-04-28T08:10:29.554Z,11.20
2019-04-28T08:13:00.951Z,12.47
2019-04-28T08:15:29.508Z,12.67
2019-04-28T08:17:58.407Z,17.53
2019-04-28T08:20:27.017Z,13.50
2019-04-28T08:22:55.986Z,15.33
2019-04-28T08:25:24.551Z,14.67
2019-04-28T08:27:53.160Z,20.27
2019-04-28T08:30:21.768Z,14.20
2019-04-28T08:32:57.905Z,12.90
2019-04-28T08:35:26.688Z,15.63
2019-04-28T08:37:55.918Z,13.67
2019-04-28T08:40:24.717Z,15.67
2019-04-28T08:42:53.285Z,12.00
2019-04-28T08:45:21.952Z,12.27
2019-04-28T08:47:50.668Z,12.77
2019-04-28T08:50:19.551Z,10.07
2019-04-28T08:52:48.127Z,8.03
2019-04-28T08:55:17.207Z,11.10
2019-04-28T08:57:45.787Z,14.43
2019-04-28T09:00:16.713Z,10.83
2019-04-28T09:02:45.430Z,12.97
2019-04-28T09:05:14.749Z,8.43
2019-04-28T09:07:43.358Z,9.73
2019-04-28T09:10:12.187Z,9.77
2019-04-28T09:12:40.832Z,10.53
2019-04-28T09:15:09.654Z,14.17
2019-04-28T09:17:38.344Z,7.97
2019-04-28T09:20:07.871Z,5.83
2019-04-28T09:22:36.484Z,11.40
2019-04-28T09:25:06.875Z,4.67
2019-04-28T09:27:35.542Z,9.33
2019-04-28T09:30:06.939Z,5.80
2019-04-28T09:32:35.555Z,6.43
2019-04-28T09:35:08.353Z,6.93
2019-04-28T09:37:36.967Z,14.70
2019-04-28T09:40:08.411Z,7.10
2019-04-28T09:42:38.601Z,6.00
2019-04-28T09:45:09.498Z,4.80
2019-04-28T09:47:38.065Z,6.33
2019-04-28T09:50:07.257Z,6.33
2019-04-28T09:52:36.106Z,8.50
2019-04-28T09:55:06.061Z,5.33
2019-04-28T09:57:34.685Z,7.43
2019-04-28T10:00:04.303Z,5.30
2019-04-28T10:02:32.851Z,6.97
2019-04-28T10:05:01.422Z,7.03
2019-04-28T10:07:30.436Z,6.67
2019-04-28T10:09:58.994Z,5.10
2019-04-28T10:12:29.968Z,10.20
2019-04-28T10:14:58.573Z,6.30
2019-04-28T10:17:28.688Z,3.10
2019-04-28T10:20:17.880Z,7.03
2019-04-28T10:22:47.050Z,5.30
2019-04-28T10:25:16.429Z,3.80
2019-04-28T10:27:45.043Z,3.00
2019-04-28T10:30:16.415Z,3.33
2019-04-28T10:32:44.975Z,2.20
2019-04-28T10:35:15.180Z,4.00
2019-04-28T10:37:45.563Z,2.70
2019-04-28T10:40:19.201Z,2.70
2019-04-28T10:42:47.755Z,3.47
2019-04-28T10:45:20.846Z,2.37
2019-04-28T10:47:49.568Z,2.07
2019-04-28T10:50:18.567Z,2.33
2019-04-28T10:52:47.448Z,2.40
2019-04-28T10:55:16.151Z,2.20
2019-04-28T10:57:44.749Z,2.23
2019-04-28T11:00:14.046Z,2.30
2019-04-28T11:02:43.385Z,2.00
2019-04-28T11:05:16.381Z,6.00
2019-04-28T11:07:45.089Z,2.87
2019-04-28T11:10:15.268Z,1.77
2019-04-28T11:12:43.888Z,2.43
2019-04-28T11:15:20.319Z,2.30
2019-04-28T11:17:49.240Z,2.80
2019-04-28T11:20:17.868Z,2.57
2019-04-28T11:22:46.488Z,2.40
2019-04-28T11:25:15.210Z,2.53
2019-04-28T11:27:43.750Z,7.33
2019-04-28T11:30:13.144Z,2.27
2019-04-28T11:32:43.337Z,5.07
2019-04-28T11:35:32.529Z,4.90
2019-04-28T11:38:01.141Z,2.00
2019-04-28T11:40:29.791Z,3.07
2019-04-28T11:42:58.579Z,7.00
2019-04-28T11:45:29.243Z,1.60
2019-04-28T11:47:59.511Z,4.63
2019-04-28T11:50:30.897Z,2.67
2019-04-28T11:52:59.707Z,2.60
2019-04-28T11:55:28.326Z,1.87
2019-04-28T11:57:56.883Z,2.53
2019-04-28T12:00:35.804Z,5.23
2019-04-28T12:03:04.642Z,3.97
2019-04-28T12:05:35.035Z,6.43
2019-04-28T12:08:03.730Z,5.83
2019-04-28T12:10:52.355Z,3.63
2019-04-28T12:28:17.613Z,5.00
2019-04-28T12:30:59.571Z,3.97
2019-04-28T12:39:44.092Z,2.60
2019-04-28T12:42:19.271Z,4.73
2019-04-28T12:44:47.915Z,4.13
2019-04-28T12:47:16.526Z,3.60
2019-04-28T12:49:49.755Z,3.30
2019-04-28T12:52:18.881Z,2.43
2019-04-28T12:54:47.603Z,4.80
2019-04-28T12:57:16.545Z,4.30
2019-04-28T12:59:49.447Z,2.33
2019-04-28T13:02:35.471Z,5.93
2019-04-28T13:05:10.341Z,2.73
2019-04-28T13:07:38.991Z,4.40
2019-04-28T13:10:07.882Z,3.33
2019-04-28T13:12:36.529Z,3.50
2019-04-28T13:15:06.667Z,9.63
2019-04-28T13:17:35.275Z,5.80
2019-04-28T13:20:04.406Z,2.50
2019-04-28T13:22:33.541Z,2.40
2019-04-28T13:25:02.382Z,5.37
2019-04-28T13:27:30.978Z,1.97
2019-04-28T13:29:59.585Z,4.63
2019-04-28T13:32:47.511Z,2.50
2019-04-28T13:35:16.885Z,1.87
2019-04-28T13:37:46.073Z,4.20
2019-04-28T13:40:34.580Z,3.13
2019-04-28T13:43:03.382Z,2.60
2019-04-28T13:45:32.339Z,4.80
2019-04-28T13:48:01.218Z,1.93
2019-04-28T13:50:31.628Z,1.63
2019-04-28T13:53:00.292Z,2.17
2019-04-28T13:55:30.590Z,2.90
2019-04-28T13:58:01.576Z,2.50
2019-04-28T14:00:40.546Z,2.10
2019-04-28T14:03:23.058Z,1.77
2019-04-28T14:05:55.980Z,2.00
2019-04-28T14:08:24.532Z,2.00
2019-04-28T14:10:53.098Z,1.93
2019-04-28T14:13:21.748Z,3.63
2019-04-28T14:15:50.725Z,4.10
2019-04-28T14:18:19.674Z,2.30
2019-04-28T14:20:48.487Z,3.10
2019-04-28T14:23:17.424Z,4.20
2019-04-28T14:25:46.408Z,5.17
2019-04-28T14:28:15.325Z,2.33
2019-04-28T14:30:43.935Z,1.60
2019-04-28T14:33:12.605Z,2.43
2019-04-28T14:35:41.278Z,3.57
2019-04-28T14:38:09.885Z,5.03
2019-04-28T14:40:38.436Z,4.93
2019-04-28T14:43:07.032Z,2.43
2019-04-28T14:45:35.997Z,6.10
2019-04-28T14:48:04.674Z,5.67
2019-04-28T14:50:33.276Z,13.23
2019-04-28T14:53:01.990Z,4.37
2019-04-28T14:55:30.752Z,4.87
2019-04-28T14:57:59.784Z,2.10
2019-04-28T15:00:39.083Z,4.27
2019-04-28T15:03:11.788Z,2.83
2019-04-28T15:05:42.157Z,4.37
2019-04-28T15:08:17.990Z,7.10
2019-04-28T15:11:00.306Z,9.57
2019-04-28T15:13:29.153Z,6.90
2019-04-28T15:15:57.889Z,2.33
2019-04-28T15:18:26.912Z,5.03
2019-04-28T15:20:55.739Z,6.30
2019-04-28T15:23:24.339Z,3.63
2019-04-28T15:25:52.951Z,4.53
2019-04-28T15:28:21.573Z,2.30
2019-04-28T15:30:50.292Z,3.10
2019-04-28T15:33:19.029Z,8.17
2019-04-28T15:35:47.624Z,1.80
2019-04-28T15:38:16.345Z,2.30
2019-04-28T15:40:45.057Z,2.13
2019-04-28T15:43:13.616Z,3.73
2019-04-28T15:45:42.496Z,3.03
2019-04-28T15:48:11.094Z,2.63
2019-04-28T15:50:39.636Z,3.17
2019-04-28T15:53:08.206Z,4.07
2019-04-28T15:55:38.468Z,3.07
2019-04-28T15:58:27.892Z,2.03
2019-04-28T16:00:56.448Z,2.00
2019-04-28T16:03:25.624Z,2.60
2019-04-28T16:05:54.331Z,1.73
2019-04-28T16:08:22.968Z,3.33
2019-04-28T16:10:51.588Z,1.80
2019-04-28T16:13:20.203Z,4.10
2019-04-28T16:15:48.814Z,4.27
2019-04-28T16:18:17.387Z,2.10
2019-04-28T16:20:46.138Z,4.60
2019-04-28T16:23:14.986Z,4.67
2019-04-28T16:25:43.627Z,1.53
2019-04-28T16:28:12.256Z,4.87
2019-04-28T16:30:40.778Z,1.73
2019-04-28T16:33:09.368Z,1.43
2019-04-28T16:35:37.985Z,3.70
2019-04-28T16:38:06.544Z,2.60
2019-04-28T16:40:35.447Z,2.87
2019-04-28T16:43:04.913Z,2.07
2019-04-28T16:45:33.556Z,1.77
2019-04-28T16:48:02.164Z,1.27
2019-04-28T16:50:31.228Z,2.20
2019-04-28T16:52:59.900Z,4.97
2019-04-28T16:55:30.556Z,2.83
2019-04-28T16:58:03.260Z,2.40
2019-04-28T17:00:48.298Z,1.93
2019-04-28T17:03:17.490Z,4.10
2019-04-28T17:05:46.112Z,2.33
2019-04-28T17:08:14.821Z,1.30
2019-04-28T17:10:43.637Z,1.50
2019-04-28T17:13:12.357Z,3.60
2019-04-28T17:15:40.976Z,1.70
2019-04-28T17:18:09.585Z,1.50
2019-04-28T17:20:38.209Z,1.50
2019-04-28T17:23:06.814Z,1.70
2019-04-28T17:25:35.559Z,4.27
2019-04-28T17:28:04.364Z,2.20
2019-04-28T17:30:33.091Z,2.53
2019-04-28T17:33:01.662Z,2.90
2019-04-28T17:35:30.540Z,1.70
2019-04-28T17:38:06.412Z,1.60
2019-04-28T17:40:30.839Z,2.50
2019-04-28T17:42:59.977Z,4.40
2019-04-28T17:45:28.534Z,1.73
2019-04-28T17:48:00.286Z,2.03
2019-04-28T17:50:29.445Z,1.87
2019-04-28T17:52:59.573Z,3.07
2019-04-28T17:55:30.863Z,1.50
2019-04-28T17:57:59.492Z,3.27
2019-04-28T18:00:47.773Z,4.23
2019-04-28T18:03:30.525Z,3.70
2019-04-28T18:06:17.884Z,3.00
2019-04-28T18:08:47.220Z,2.13
2019-04-28T18:11:16.330Z,1.77
2019-04-28T18:13:44.939Z,2.23
2019-04-28T18:16:30.551Z,1.70
2019-04-28T18:19:01.210Z,3.77
2019-04-28T18:21:30.228Z,2.50
2019-04-28T18:23:58.837Z,3.33
2019-04-28T18:26:30.447Z,3.63
2019-04-28T18:28:59.060Z,1.67
2019-04-28T18:31:29.307Z,1.67
2019-04-28T18:34:16.257Z,1.63
2019-04-28T18:36:46.514Z,2.37
2019-04-28T18:39:32.944Z,2.77
2019-04-28T18:42:03.226Z,2.07
2019-04-28T18:44:31.913Z,2.83
2019-04-28T18:47:00.520Z,1.87
2019-04-28T18:49:29.134Z,3.70
2019-04-28T18:51:57.743Z,1.93
2019-04-28T18:54:26.961Z,1.83
2019-04-28T18:56:57.846Z,2.73
2019-04-28T18:59:26.459Z,2.17
2019-04-28T19:01:59.477Z,3.30
2019-04-28T19:04:29.622Z,2.60
2019-04-28T19:07:05.288Z,1.97
2019-04-28T19:09:33.302Z,1.87
2019-04-28T19:12:03.568Z,3.63
2019-04-28T19:14:36.842Z,2.00
2019-04-28T19:17:09.937Z,1.60
2019-04-28T19:19:40.363Z,4.73
2019-04-28T19:22:08.973Z,1.70
2019-04-28T19:24:37.584Z,2.20
2019-04-28T19:27:06.398Z,2.23
2019-04-28T19:29:35.017Z,2.90
2019-04-28T19:32:03.700Z,1.83
2019-04-28T19:34:32.376Z,3.47
2019-04-28T19:37:01.085Z,5.00
2019-04-28T19:39:30.068Z,2.50
2019-04-28T19:41:58.631Z,1.90
2019-04-28T19:44:29.173Z,3.33
2019-04-28T19:46:57.944Z,2.17
2019-04-28T19:49:26.911Z,1.87
2019-04-28T19:51:55.830Z,3.27
2019-04-28T19:54:26.192Z,2.03
2019-04-28T19:57:05.462Z,2.20
2019-04-28T19:59:52.003Z,2.67
2019-04-28T20:02:20.731Z,3.07
2019-04-28T20:04:49.364Z,2.73
2019-04-28T20:07:17.987Z,2.70
2019-04-28T20:09:46.631Z,3.60
2019-04-28T20:12:15.289Z,2.00
2019-04-28T20:14:43.889Z,3.90
2019-04-28T20:17:12.959Z,1.73
2019-04-28T20:19:41.571Z,2.10
2019-04-28T20:22:10.202Z,2.63
2019-04-28T20:24:46.949Z,2.20
2019-04-28T20:27:09.132Z,3.40
2019-04-28T20:29:37.789Z,2.50
2019-04-28T20:32:06.438Z,6.90
2019-04-28T20:34:35.073Z,2.00
2019-04-28T20:37:08.108Z,2.20
2019-04-28T20:39:36.750Z,2.30
2019-04-28T20:42:23.262Z,1.70
2019-04-28T20:44:52.306Z,2.80
2019-04-28T20:47:20.923Z,5.13
2019-04-28T20:49:49.557Z,3.70
2019-04-28T20:52:18.208Z,3.03
2019-04-28T20:54:46.809Z,2.60
2019-04-28T20:57:15.428Z,3.33
2019-04-28T20:59:44.067Z,4.40
2019-04-28T21:02:13.025Z,2.93
2019-04-28T21:04:41.651Z,3.23
2019-04-28T21:07:10.269Z,4.10
2019-04-28T21:09:38.987Z,2.53
2019-04-28T21:12:08.027Z,2.80
2019-04-28T21:14:36.754Z,11.80
2019-04-28T21:17:05.475Z,4.67
2019-04-28T21:19:34.734Z,2.63
2019-04-28T21:22:03.373Z,4.90
2019-04-28T21:24:32.008Z,3.60
2019-04-28T21:27:00.669Z,4.33
2019-04-28T21:29:29.321Z,4.90
2019-04-28T21:31:59.457Z,4.77
2019-04-28T21:34:29.280Z,3.57
2019-04-28T21:36:58.148Z,3.23
2019-04-28T21:39:30.009Z,2.77
2019-04-28T21:42:00.019Z,2.60
2019-04-28T21:44:30.285Z,6.60
2019-04-28T21:47:01.160Z,3.03
2019-04-28T21:49:31.806Z,7.07
2019-04-28T21:52:00.418Z,6.70
2019-04-28T21:54:29.026Z,3.57
2019-04-28T21:57:00.609Z,3.70
2019-04-28T21:59:29.219Z,2.43
2019-04-28T22:01:57.865Z,2.47
2019-04-28T22:04:28.219Z,3.17
2019-04-28T22:07:00.229Z,4.70
2019-04-28T22:09:28.878Z,2.97
2019-04-28T22:12:00.583Z,4.70
2019-04-28T22:14:29.158Z,3.10
2019-04-28T22:16:57.718Z,6.33
2019-04-28T22:19:27.963Z,7.10
2019-04-28T22:21:56.586Z,9.03
2019-04-28T22:24:38.825Z,3.00
2019-04-28T22:27:09.072Z,5.07
2019-04-28T22:29:37.691Z,3.50
2019-04-28T22:32:06.305Z,6.30
2019-04-28T22:34:34.912Z,4.50
2019-04-28T22:37:03.535Z,5.00
2019-04-28T22:39:32.180Z,7.10
2019-04-28T22:42:00.905Z,5.53
2019-04-28T22:44:29.786Z,4.77
2019-04-28T22:46:58.714Z,3.07
2019-04-28T22:49:28.866Z,4.80
2019-04-28T22:52:00.149Z,4.87
2019-04-28T22:54:30.396Z,4.00
2019-04-28T22:57:00.655Z,4.60
2019-04-28T22:59:39.908Z,3.47
2019-04-28T23:02:13.128Z,4.33
2019-04-28T23:04:49.113Z,17.20
2019-04-28T23:07:18.101Z,4.23
2019-04-28T23:09:46.656Z,4.40
2019-04-28T23:12:15.244Z,3.90
2019-04-28T23:14:43.802Z,5.47
2019-04-28T23:17:13.995Z,3.37
2019-04-28T23:19:43.973Z,5.27
2019-04-28T23:22:23.745Z,7.20
2019-04-28T23:25:06.405Z,2.93
2019-04-28T23:27:34.970Z,3.57
2019-04-28T23:30:05.268Z,3.83
2019-04-28T23:35:37.103Z,3.57
2019-04-28T23:41:10.058Z,6.33
2019-04-28T23:43:38.976Z,7.83
2019-04-28T23:46:07.555Z,4.47
2019-04-28T23:48:36.829Z,4.67
2019-04-28T23:51:16.199Z,4.30
2019-04-28T23:53:58.143Z,4.80
2019-04-28T23:56:29.840Z,7.10
2019-04-28T23:58:58.434Z,7.43
